Uneeda, West Virginia
Current Conditions -  °F | °C
As of 1:54 PM on Wednesday 26 Nov 2014 (Local Time) from KCRW Reporting Station
Drizzle Drizzle  
Wind Chill: 36°   Ceiling: 400
Heat Index: 36°   Visibility: 2mi
Dew Point: 34°   Wind: 0mph
Humidity: 93%   Direction: NA
Pressure: 30.01"   Gusts: NA
Location:  38.04°N, 81.78°W
Report Text: KCRW 261854Z 00000KT 2SM -DZ BR OVC004 02/01 A3001 RMK AO2 SLP168 RAE50DZB51SNB04E50 P0001 T00220011
Loading
Personal Weather Stations






























Interactive Weather Map New forecast layout! Learn more

10-Day Weather Forecast

Advertisements
Track Severe Weather on mobile